• Join FlightAware (Why Join?)
  • Login
  • US Flag 
10:20PM EDT


 

Airport Tracker/Info


-or-


 

Live Flight TrackerFlight Track Log ✈ N44566 ✈ 04-Nov-2013 ✈ KHTO - KWST

Flight Track Log - Related Links

Times and Time Zones

All times are in EST time to prevent confusion due to time zone crossing. See the N44566 flight status page for this flight to view local times or setup timezone preferences in your user account.

Time Position Orientation Groundspeed Altitude Reporting Facility
EST Latitude Longitude Course Direction KTS MPH feet Rate Location/Type
06:39PM 40.9564 -72.8306 83° East 88 101 3,500  Level Boston Center
06:40PM 40.9594 -72.7978 83° East 89 102 3,500  Level Boston Center
06:41PM 40.9625 -72.7658 83° East 88 101 3,500  Level Boston Center
06:42PM 40.9647 -72.7333 85° East 88 101 3,500  Level Boston Center
06:43PM 40.9653 -72.7011 89° East 88 101 3,500  Level Boston Center
06:44PM 40.9658 -72.6689 89° East 88 101 3,500  Level Boston Center
06:45PM 40.9803 -72.6428 54° Northeast 89 102 3,500  Level Boston Center
06:46PM 40.9931 -72.6161 58° Northeast 87 100 3,600  Climbing Boston Center
06:47PM 41.0000 -72.5833 74° East 91 105 3,500 -60 Descending New York TRACON
06:48PM 41.0167 -72.5500 56° Northeast 83 96 3,500  Level New York TRACON
06:49PM 41.0333 -72.5167 56° Northeast 88 101 3,600  Climbing New York TRACON
06:50PM 41.0500 -72.5000 37° Northeast 82 94 3,600  Level New York TRACON
06:51PM 41.0500 -72.4667 90° East 82 94 3,600 -60 Level New York TRACON
06:52PM 41.0667 -72.4500 37° Northeast 91 105 3,500 -60 Descending New York TRACON
06:53PM 41.0833 -72.4167 56° Northeast 91 105 3,500  Level New York TRACON
06:54PM 41.1000 -72.3833 56° Northeast 87 100 3,500  Level New York TRACON
06:55PM 41.1011 -72.3653 85° East 86 99 3,500  Level Boston Center
06:56PM 41.1103 -72.3372 67° East 85 98 3,500  Level Boston Center
06:57PM 41.1203 -72.3086 65° Northeast 85 98 3,500  Level Boston Center
06:58PM 41.1297 -72.2803 66° East 85 98 3,500  Level Boston Center
06:59PM 41.1397 -72.2511 66° East 88 101 3,600  Climbing Boston Center
07:00PM 41.1528 -72.2214 60° Northeast 86 99 3,600  Level Boston Center
07:00PM 41.1514 -72.2239 234° Southwest 88 101 3,600 -120 Level Boston Center
07:01PM 41.1650 -72.1944 58° Northeast 88 101 3,500 -120 Descending Boston Center
07:01PM 41.1675 -72.1928 27° Northeast 86 99 3,500  Level Boston Center
07:02PM 41.1797 -72.1625 62° Northeast 92 106 3,500  Level Boston Center
07:03PM 41.1908 -72.1342 62° Northeast 88 101 3,600  Climbing Boston Center
07:03PM 41.1906 -72.1353 252° West 89 102 3,500  Descending Boston Center
07:04PM 41.2067 -72.1108 49° Northeast 86 99 3,600 60 Climbing Boston Center
07:04PM 41.2069 -72.1097 72° East 87 100 3,600  Level Boston Center
07:05PM 41.2189 -72.0819 60° Northeast 88 101 3,600  Level Boston Center
07:06PM 41.2311 -72.0522 61° Northeast 91 105 3,600 -120 Level Boston Center
07:06PM 41.2311 -72.0472 90° East 91 105 3,500 -120 Descending Boston Center
07:07PM 41.2408 -72.0214 63° Northeast 91 105 3,500  Level Boston Center
07:07PM 41.2422 -72.0142 76° East 93 107 3,500  Level Boston Center
07:08PM 41.2506 -71.9906 65° Northeast 90 104 3,500  Level Boston Center